Time;durP1;ratioP1;P1;durP2;ratioP2;P2;SDS_P1;SDS_P2;PMS_P1;PMS_P2;Temp;Humidity;BMP_temperature;BMP_pressure;BME280_temperature;BME280_humidity;BME280_pressure;Samples;Min_cycle;Max_cycle;Signal;HPM_P1;HPM_P2
2021/12/04 00:01:11;;;;;;;27.07;14.37;;;5.00;99.90;;;;;;5032254;28;20186;-58
2021/12/04 00:03:41;;;;;;;38.73;13.43;;;5.00;99.90;;;;;;5031865;28;20719;-58
2021/12/04 00:06:19;;;;;;;34.07;14.07;;;5.10;99.90;;;;;;5029407;28;20170;-58
2021/12/04 00:08:46;;;;;;;29.87;14.63;;;5.20;99.90;;;;;;5032269;28;20181;-58
2021/12/04 00:11:11;;;;;;;31.07;13.63;;;5.20;99.90;;;;;;5032570;28;20228;-58
2021/12/04 00:13:37;;;;;;;28.63;12.57;;;5.20;99.90;;;;;;5010775;28;20250;-58
2021/12/04 00:16:03;;;;;;;29.47;12.20;;;5.30;99.90;;;;;;5012587;28;20546;-58
2021/12/04 00:18:29;;;;;;;34.43;13.10;;;5.30;99.90;;;;;;5012702;28;20174;-58
2021/12/04 00:20:55;;;;;;;25.73;12.57;;;5.30;99.90;;;;;;5012539;28;20592;-58
2021/12/04 00:23:21;;;;;;;76.83;28.03;;;5.30;99.90;;;;;;5012663;28;20272;-60
2021/12/04 00:25:46;;;;;;;33.03;14.00;;;5.30;99.90;;;;;;5012796;28;20179;-59
2021/12/04 00:28:12;;;;;;;30.70;16.77;;;5.30;99.90;;;;;;5012686;28;20236;-59
2021/12/04 00:30:38;;;;;;;30.60;14.87;;;5.30;99.90;;;;;;5012606;28;20649;-59
2021/12/04 00:33:16;;;;;;;25.77;13.47;;;5.30;99.90;;;;;;5012327;28;20269;-59
2021/12/04 00:35:47;;;;;;;29.37;14.03;;;5.30;99.90;;;;;;5012737;28;20171;-59
2021/12/04 00:51:37;;;;;;;24.23;11.93;;;5.40;99.90;;;;;;5012211;28;20174;-59
2021/12/04 00:54:05;;;;;;;21.33;11.00;;;5.40;99.90;;;;;;5012129;28;20186;-60
2021/12/04 00:56:32;;;;;;;21.53;11.37;;;5.50;99.90;;;;;;5012400;28;20192;-59
2021/12/04 00:58:58;;;;;;;26.13;10.90;;;5.50;99.90;;;;;;5012022;28;20171;-59
2021/12/04 01:01:24;;;;;;;27.10;10.87;;;5.50;99.90;;;;;;5011574;28;20186;-59
2021/12/04 01:03:50;;;;;;;24.33;10.13;;;5.50;99.90;;;;;;5011594;28;20232;-59
2021/12/04 01:06:16;;;;;;;20.47;9.83;;;5.50;99.90;;;;;;5012194;28;20183;-59
2021/12/04 01:08:41;;;;;;;21.93;10.67;;;5.50;99.90;;;;;;5012124;28;20169;-59
2021/12/04 01:11:07;;;;;;;23.27;10.40;;;5.50;99.90;;;;;;5012153;28;20201;-59
2021/12/04 01:13:34;;;;;;;22.00;10.30;;;5.60;99.90;;;;;;5018048;28;20703;-59
2021/12/04 01:16:01;;;;;;;25.67;10.93;;;5.60;99.90;;;;;;5031503;28;20174;-60
2021/12/04 01:18:27;;;;;;;24.10;10.43;;;5.70;99.90;;;;;;5032020;28;20632;-59
2021/12/04 01:20:53;;;;;;;27.27;11.07;;;5.70;99.90;;;;;;5031388;28;20236;-59
2021/12/04 01:23:19;;;;;;;24.77;10.27;;;5.80;99.90;;;;;;5031385;28;20620;-59
2021/12/04 01:25:46;;;;;;;27.03;11.13;;;5.80;99.90;;;;;;5031431;28;20637;-59
2021/12/04 01:28:13;;;;;;;27.07;11.00;;;5.90;99.90;;;;;;5031471;28;20228;-59
2021/12/04 01:30:39;;;;;;;25.77;11.13;;;5.90;99.90;;;;;;5031524;28;20652;-58
2021/12/04 01:33:05;;;;;;;20.97;10.23;;;5.90;99.90;;;;;;5030955;28;20224;-59
2021/12/04 01:35:31;;;;;;;20.27;10.03;;;6.00;99.90;;;;;;5031225;28;20177;-59
2021/12/04 01:37:57;;;;;;;21.57;10.17;;;6.00;99.90;;;;;;5031030;28;20293;-60
2021/12/04 01:40:23;;;;;;;18.43;8.63;;;6.00;99.90;;;;;;5030643;28;20699;-60
2021/12/04 01:42:49;;;;;;;16.10;8.70;;;6.00;99.90;;;;;;5030532;28;20182;-59
2021/12/04 01:45:17;;;;;;;22.40;9.87;;;6.00;99.90;;;;;;5031096;28;20220;-60
2021/12/04 01:47:43;;;;;;;25.27;10.20;;;6.00;99.90;;;;;;5031483;28;20273;-59
2021/12/04 01:50:10;;;;;;;25.73;11.60;;;6.00;99.90;;;;;;5030702;28;20260;-60
2021/12/04 01:52:35;;;;;;;22.00;8.80;;;6.10;99.90;;;;;;5030678;28;20170;-60
2021/12/04 01:55:03;;;;;;;24.37;10.27;;;6.10;99.90;;;;;;5030609;28;20320;-59
2021/12/04 01:57:30;;;;;;;18.93;9.00;;;6.10;99.90;;;;;;5011455;28;20202;-60
2021/12/04 01:59:56;;;;;;;18.57;10.40;;;6.00;99.90;;;;;;5014176;28;20664;-60
2021/12/04 02:02:22;;;;;;;23.53;9.93;;;6.10;99.90;;;;;;5030880;28;20182;-60
2021/12/04 02:04:48;;;;;;;23.90;12.03;;;6.10;99.90;;;;;;5030315;28;20737;-60
2021/12/04 02:07:15;;;;;;;30.03;11.53;;;6.10;99.90;;;;;;5031069;28;20174;-60
2021/12/04 02:12:16;;;;;;;29.03;12.63;;;6.20;99.90;;;;;;2627656;22;20234;-59
2021/12/04 02:14:42;;;;;;;26.47;11.77;;;6.20;99.90;;;;;;5012440;28;20208;-59
2021/12/04 02:17:09;;;;;;;31.90;13.33;;;6.20;99.90;;;;;;5011124;28;20170;-59
2021/12/04 02:19:35;;;;;;;31.20;13.37;;;6.20;99.90;;;;;;5010936;28;20178;-59
2021/12/04 02:22:01;;;;;;;32.63;14.03;;;6.30;99.90;;;;;;5015470;28;20182;-58
2021/12/04 02:24:27;;;;;;;35.10;15.37;;;6.30;99.90;;;;;;5022418;28;20815;-58
2021/12/04 02:26:53;;;;;;;41.90;14.83;;;6.40;99.90;;;;;;5011971;28;20185;-61
2021/12/04 02:29:19;;;;;;;29.10;13.97;;;6.40;99.90;;;;;;5011886;28;20185;-61
2021/12/04 02:31:55;;;;;;;34.37;14.83;;;6.50;99.90;;;;;;5011896;28;20217;-60
2021/12/04 02:34:27;;;;;;;25.87;11.77;;;6.60;99.90;;;;;;5011109;28;20173;-58
2021/12/04 02:36:54;;;;;;;28.00;11.57;;;6.60;99.90;;;;;;5010871;28;20217;-58
2021/12/04 02:39:32;;;;;;;24.53;11.87;;;6.50;99.90;;;;;;5010624;28;20253;-61
2021/12/04 02:41:58;;;;;;;25.73;10.93;;;6.30;99.90;;;;;;5010751;28;20281;-60
2021/12/04 02:44:37;;;;;;;23.40;11.93;;;6.50;99.90;;;;;;5010815;28;20206;-60
2021/12/04 02:47:04;;;;;;;22.53;10.77;;;6.50;99.90;;;;;;4993530;28;20713;-61
2021/12/04 02:49:30;;;;;;;23.43;12.00;;;6.60;99.90;;;;;;5021672;28;20254;-60
2021/12/04 02:52:04;;;;;;;25.97;11.43;;;6.80;99.90;;;;;;5010710;28;20265;-60
2021/12/04 02:54:32;;;;;;;29.30;13.87;;;6.90;99.90;;;;;;5012683;28;20174;-60
2021/12/04 02:56:57;;;;;;;32.77;14.07;;;7.00;99.90;;;;;;5034026;28;20768;-61
2021/12/04 02:59:24;;;;;;;37.77;14.83;;;7.10;99.90;;;;;;5015350;28;20257;-58
2021/12/04 03:01:53;;;;;;;32.50;14.67;;;7.30;99.90;;;;;;5015677;28;20182;-61
2021/12/04 03:04:21;;;;;;;33.37;15.13;;;7.30;99.90;;;;;;5029452;28;20762;-61
2021/12/04 03:06:47;;;;;;;41.67;15.77;;;7.30;99.90;;;;;;5014159;28;20174;-61
2021/12/04 03:09:14;;;;;;;25.43;12.03;;;7.20;99.90;;;;;;5016824;28;20182;-61
2021/12/04 03:11:40;;;;;;;28.00;14.90;;;7.40;99.90;;;;;;5014082;28;20167;-58
2021/12/04 03:14:06;;;;;;;23.23;11.70;;;7.80;99.90;;;;;;5014165;28;20305;-60
2021/12/04 03:16:34;;;;;;;19.63;10.63;;;7.60;99.90;;;;;;5031761;28;20201;-60
2021/12/04 03:19:00;;;;;;;22.70;11.00;;;7.70;99.90;;;;;;5033915;28;20185;-58
2021/12/04 03:21:26;;;;;;;19.40;10.63;;;7.70;99.90;;;;;;5016502;28;20183;-59
2021/12/04 03:24:02;;;;;;;17.00;9.40;;;7.80;99.90;;;;;;5024132;28;20206;-58
2021/12/04 03:26:28;;;;;;;19.20;9.13;;;7.80;99.90;;;;;;5031420;28;20177;-60
2021/12/04 03:28:55;;;;;;;20.67;9.63;;;7.90;99.90;;;;;;5013556;28;20189;-60
2021/12/04 03:42:11;;;;;;;17.57;10.20;;;7.80;99.90;;;;;;5033019;28;20559;-60
2021/12/04 03:44:38;;;;;;;23.47;11.33;;;7.80;99.90;;;;;;5032975;28;20209;-60
2021/12/04 03:47:04;;;;;;;28.90;12.40;;;7.90;99.90;;;;;;5033824;28;20181;-60
2021/12/04 03:49:31;;;;;;;27.17;13.50;;;7.90;99.90;;;;;;5033079;28;20173;-60
2021/12/04 03:51:56;;;;;;;31.47;13.60;;;7.90;99.90;;;;;;5033287;28;20312;-60
2021/12/04 03:54:22;;;;;;;25.93;13.87;;;7.90;99.90;;;;;;5033146;28;20668;-61
2021/12/04 03:56:50;;;;;;;28.53;14.63;;;7.90;99.90;;;;;;5033006;28;20178;-62
2021/12/04 03:59:18;;;;;;;21.33;13.17;;;7.90;99.90;;;;;;5032732;28;20185;-61
2021/12/04 04:01:44;;;;;;;24.90;14.30;;;7.90;99.90;;;;;;5032708;28;20169;-61
2021/12/04 04:04:10;;;;;;;26.30;13.50;;;7.90;99.90;;;;;;5030902;28;20216;-62
2021/12/04 04:06:36;;;;;;;23.10;12.80;;;7.90;99.90;;;;;;5013028;28;20652;-61
2021/12/04 04:09:03;;;;;;;22.57;11.10;;;7.90;99.90;;;;;;5021852;28;20239;-59
2021/12/04 04:11:29;;;;;;;21.30;11.80;;;7.90;99.90;;;;;;5015711;28;20636;-59
2021/12/04 04:13:55;;;;;;;18.63;11.67;;;7.90;99.90;;;;;;5013060;28;20225;-59
2021/12/04 04:16:20;;;;;;;20.67;12.23;;;8.00;99.90;;;;;;5029298;28;20185;-59
2021/12/04 04:18:46;;;;;;;22.47;12.13;;;8.00;99.90;;;;;;5032912;28;20446;-59
2021/12/04 04:21:12;;;;;;;24.70;11.83;;;8.00;99.90;;;;;;5020796;28;20197;-59
2021/12/04 04:23:38;;;;;;;20.87;11.83;;;8.00;99.90;;;;;;5030034;28;20216;-59
2021/12/04 04:26:04;;;;;;;20.30;10.87;;;8.00;99.90;;;;;;5031039;28;20174;-59
2021/12/04 04:28:30;;;;;;;17.40;8.13;;;8.10;99.90;;;;;;5012721;28;20175;-60
2021/12/04 04:30:56;;;;;;;14.67;5.40;;;8.10;99.90;;;;;;5012706;28;20203;-59
2021/12/04 04:33:21;;;;;;;12.23;5.13;;;8.10;99.90;;;;;;5012582;28;20179;-62
2021/12/04 04:36:00;;;;;;;17.83;5.50;;;8.10;99.90;;;;;;5029183;28;20173;-62
2021/12/04 04:38:42;;;;;;;12.93;3.90;;;8.10;99.90;;;;;;5032232;28;20221;-61
2021/12/04 05:00:32;;;;;;;9.87;2.73;;;7.70;99.90;;;;;;5024366;28;20174;-60
2021/12/04 05:11:11;;;;;;;6.67;2.00;;;7.50;99.90;;;;;;5012835;28;20193;-60
2021/12/04 05:13:39;;;;;;;10.40;2.13;;;7.30;99.90;;;;;;5001931;28;20217;-59
2021/12/04 05:16:16;;;;;;;5.53;1.60;;;7.30;99.90;;;;;;5016800;28;20292;-60
2021/12/04 05:19:25;;;;;;;6.00;1.30;;;7.20;99.90;;;;;;5029710;28;20174;-60
2021/12/04 05:21:37;;;;;;;6.47;1.60;;;7.20;99.90;;;;;;5011595;28;20589;-60
2021/12/04 05:24:03;;;;;;;6.50;1.70;;;7.10;99.90;;;;;;5012586;28;20214;-60
2021/12/04 05:26:30;;;;;;;7.53;1.60;;;7.10;99.90;;;;;;5027501;28;20684;-60
2021/12/04 05:28:59;;;;;;;9.63;1.20;;;7.00;99.90;;;;;;5019130;28;20203;-60
2021/12/04 05:31:27;;;;;;;7.03;1.27;;;7.00;99.90;;;;;;5029391;28;20181;-60
2021/12/04 05:33:53;;;;;;;11.83;1.70;;;7.00;99.90;;;;;;5014509;28;20182;-60
2021/12/04 05:36:19;;;;;;;10.90;1.47;;;7.00;99.90;;;;;;5027847;28;20536;-60
2021/12/04 05:38:45;;;;;;;11.87;1.40;;;7.00;99.90;;;;;;5031001;28;20710;-60
2021/12/04 05:41:11;;;;;;;14.70;1.50;;;6.90;99.90;;;;;;5027527;28;20205;-59
2021/12/04 05:43:37;;;;;;;13.20;1.60;;;6.90;99.90;;;;;;5010996;28;20525;-59
2021/12/04 05:46:20;;;;;;;12.03;1.17;;;6.90;99.90;;;;;;5010847;28;20175;-59
2021/12/04 05:49:03;;;;;;;14.10;2.30;;;6.80;99.90;;;;;;5012385;28;20253;-60
2021/12/04 05:54:18;;;;;;;11.83;1.43;;;6.80;99.90;;;;;;5031223;28;20170;-59
2021/12/04 05:56:44;;;;;;;15.17;1.80;;;6.80;99.90;;;;;;5030927;28;20537;-59
2021/12/04 05:59:10;;;;;;;12.73;1.60;;;6.90;99.90;;;;;;5031259;28;20228;-59
2021/12/04 06:01:35;;;;;;;11.70;1.40;;;6.90;99.90;;;;;;5029279;28;20248;-59
2021/12/04 06:04:01;;;;;;;16.33;1.73;;;6.90;99.90;;;;;;5030664;28;20702;-59
2021/12/04 06:06:27;;;;;;;14.60;1.77;;;6.80;99.90;;;;;;5017540;28;20183;-59
2021/12/04 06:08:53;;;;;;;14.80;1.50;;;6.80;99.90;;;;;;5011029;28;20662;-60
2021/12/04 06:11:19;;;;;;;11.57;1.60;;;6.80;99.90;;;;;;5011267;28;20182;-59
2021/12/04 06:13:45;;;;;;;14.10;1.93;;;6.80;99.90;;;;;;5011243;28;20300;-60
2021/12/04 06:16:12;;;;;;;13.60;1.83;;;6.80;99.90;;;;;;5013711;28;20179;-59
2021/12/04 06:18:38;;;;;;;8.13;1.47;;;6.80;99.90;;;;;;5010799;28;20194;-58
2021/12/04 06:23:47;;;;;;;14.33;1.73;;;6.70;99.90;;;;;;5005400;28;20221;-60
2021/12/04 06:26:14;;;;;;;13.27;1.60;;;6.80;99.90;;;;;;5011088;28;20195;-59
2021/12/04 06:28:40;;;;;;;16.80;1.93;;;6.80;99.90;;;;;;5031956;28;20174;-60
2021/12/04 06:31:08;;;;;;;16.83;2.00;;;6.70;99.90;;;;;;5033261;28;20186;-60
2021/12/04 06:33:34;;;;;;;16.07;2.03;;;7.50;99.90;;;;;;5034413;28;20216;-60
2021/12/04 06:36:00;;;;;;;15.17;2.07;;;6.70;99.90;;;;;;5034362;28;20213;-60
2021/12/04 06:38:26;;;;;;;14.87;1.87;;;6.70;99.90;;;;;;5034647;28;20197;-60
2021/12/04 06:40:52;;;;;;;20.77;2.23;;;6.70;99.90;;;;;;5034516;28;20185;-60
2021/12/04 06:43:19;;;;;;;9.00;1.17;;;6.70;99.90;;;;;;5034878;28;20265;-59
2021/12/04 06:45:50;;;;;;;14.07;2.20;;;6.70;99.90;;;;;;5022403;28;20178;-60
2021/12/04 06:48:22;;;;;;;16.33;2.30;;;6.70;99.90;;;;;;5015606;28;20633;-60
2021/12/04 06:50:55;;;;;;;18.73;2.20;;;6.70;99.90;;;;;;5030462;28;20272;-60
2021/12/04 06:56:01;;;;;;;10.33;1.63;;;6.50;99.90;;;;;;5015796;28;20187;-60
2021/12/04 06:58:28;;;;;;;19.10;2.10;;;6.40;99.90;;;;;;5029438;28;20194;-60
2021/12/04 07:00:55;;;;;;;13.03;1.90;;;6.30;99.90;;;;;;5018352;28;20232;-60
2021/12/04 07:03:21;;;;;;;17.60;1.77;;;6.30;99.90;;;;;;5015114;28;20166;-60
2021/12/04 07:05:48;;;;;;;8.80;1.90;;;6.20;99.90;;;;;;5032776;28;20643;-60
2021/12/04 07:08:14;;;;;;;18.50;2.43;;;6.10;99.90;;;;;;5025643;28;20274;-60
2021/12/04 07:10:40;;;;;;;14.27;2.70;;;6.10;99.90;;;;;;5014400;28;20179;-60
2021/12/04 07:13:06;;;;;;;11.90;1.87;;;6.20;99.90;;;;;;5014270;28;20714;-60
2021/12/04 07:15:32;;;;;;;14.73;1.53;;;6.20;99.90;;;;;;5015769;28;20170;-60
2021/12/04 07:17:59;;;;;;;18.90;2.07;;;6.20;99.90;;;;;;5033118;28;20224;-60
2021/12/04 07:20:26;;;;;;;13.50;2.77;;;6.20;99.90;;;;;;5027788;28;20175;-60
2021/12/04 07:22:52;;;;;;;7.10;1.43;;;6.20;99.90;;;;;;5014188;28;20177;-60
2021/12/04 07:25:18;;;;;;;16.10;2.00;;;6.20;99.90;;;;;;5027557;28;20209;-60
2021/12/04 07:27:45;;;;;;;26.30;2.13;;;6.20;99.90;;;;;;5034080;28;20170;-60
2021/12/04 07:30:11;;;;;;;16.57;1.60;;;6.20;99.90;;;;;;5022911;28;20255;-60
2021/12/04 07:32:38;;;;;;;13.80;2.23;;;6.20;99.90;;;;;;5027898;28;20281;-60
2021/12/04 07:35:05;;;;;;;11.20;1.83;;;6.10;99.90;;;;;;5031726;28;20192;-60
2021/12/04 07:37:31;;;;;;;17.53;1.80;;;6.00;99.90;;;;;;5015833;28;20174;-59
2021/12/04 07:39:57;;;;;;;19.57;2.27;;;6.00;99.90;;;;;;5029633;28;20193;-59
2021/12/04 07:42:23;;;;;;;17.20;1.87;;;5.90;99.90;;;;;;5028914;28;20188;-59
2021/12/04 07:44:49;;;;;;;12.90;1.90;;;5.90;99.90;;;;;;5015205;28;20210;-59
2021/12/04 07:47:15;;;;;;;10.73;1.60;;;5.90;99.90;;;;;;5013582;28;20170;-58
2021/12/04 07:49:41;;;;;;;16.30;2.10;;;5.90;99.90;;;;;;5013710;28;20249;-58
2021/12/04 07:52:09;;;;;;;14.33;2.07;;;5.90;99.90;;;;;;5013664;28;20262;-58
2021/12/04 07:54:35;;;;;;;16.13;1.90;;;5.90;99.90;;;;;;5013678;28;20217;-58
2021/12/04 07:57:02;;;;;;;14.47;1.97;;;5.80;99.90;;;;;;5013736;28;20170;-58
2021/12/04 07:59:28;;;;;;;10.50;1.67;;;5.80;99.90;;;;;;5017904;28;20174;-60
2021/12/04 08:01:56;;;;;;;17.33;1.90;;;5.80;99.90;;;;;;5031263;28;20582;-60
2021/12/04 08:04:23;;;;;;;13.50;2.00;;;5.70;99.90;;;;;;5032707;28;20687;-60
2021/12/04 08:06:50;;;;;;;9.97;1.33;;;5.70;99.90;;;;;;5033302;28;20166;-61
2021/12/04 08:09:16;;;;;;;11.63;2.07;;;5.70;99.90;;;;;;5014760;28;20197;-61
2021/12/04 08:11:41;;;;;;;20.50;1.80;;;5.70;99.90;;;;;;4995731;28;20269;-59
2021/12/04 08:14:07;;;;;;;11.53;1.73;;;5.70;99.90;;;;;;5028971;28;20289;-59
2021/12/04 08:16:33;;;;;;;7.47;1.33;;;5.80;99.90;;;;;;5033154;28;20265;-59
2021/12/04 08:18:59;;;;;;;8.93;1.57;;;5.80;99.90;;;;;;5032659;28;20178;-59
2021/12/04 08:21:25;;;;;;;15.83;1.50;;;5.90;99.90;;;;;;5032935;28;20170;-59
2021/12/04 08:23:52;;;;;;;8.93;1.70;;;6.00;99.90;;;;;;5032929;28;20217;-60
2021/12/04 08:26:18;;;;;;;17.30;1.83;;;6.00;99.90;;;;;;5032865;28;20253;-60
2021/12/04 08:28:44;;;;;;;17.90;2.30;;;6.00;99.90;;;;;;5032807;28;20236;-60
2021/12/04 08:31:10;;;;;;;14.10;2.03;;;6.00;99.90;;;;;;5032450;28;20193;-60
2021/12/04 08:33:36;;;;;;;12.90;1.13;;;6.00;99.90;;;;;;5014861;28;20580;-62
2021/12/04 08:36:04;;;;;;;20.30;2.23;;;6.10;99.90;;;;;;5032692;28;20220;-60
2021/12/04 08:38:31;;;;;;;16.03;1.90;;;6.10;99.90;;;;;;5032807;28;20181;-60
2021/12/04 08:40:57;;;;;;;11.40;1.80;;;6.10;99.90;;;;;;5031041;28;20200;-60
2021/12/04 08:43:23;;;;;;;13.07;1.87;;;6.30;99.90;;;;;;5023515;28;20194;-60
2021/12/04 08:45:48;;;;;;;10.07;1.43;;;6.70;99.90;;;;;;5012823;28;20561;-60
2021/12/04 08:48:14;;;;;;;18.77;1.70;;;6.60;99.90;;;;;;5012777;28;20587;-61
2021/12/04 08:50:40;;;;;;;13.20;2.10;;;6.60;99.90;;;;;;5012595;28;20637;-60
2021/12/04 08:53:07;;;;;;;10.43;1.60;;;6.70;99.90;;;;;;5021262;28;20218;-60
2021/12/04 08:55:36;;;;;;;9.70;1.70;;;6.70;99.90;;;;;;5032254;28;20649;-60
2021/12/04 08:58:03;;;;;;;15.20;1.50;;;6.80;99.90;;;;;;5026441;28;20185;-61
2021/12/04 09:00:39;;;;;;;17.63;1.90;;;6.90;99.90;;;;;;5024797;28;20181;-61
2021/12/04 09:03:07;;;;;;;18.83;2.27;;;7.60;99.90;;;;;;5010721;28;20270;-60
2021/12/04 09:05:35;;;;;;;16.63;2.00;;;7.70;99.90;;;;;;5012384;28;20930;-60
2021/12/04 09:08:03;;;;;;;11.37;1.83;;;7.50;99.90;;;;;;5011986;28;20171;-59
2021/12/04 09:10:29;;;;;;;15.00;3.17;;;7.50;99.90;;;;;;5012212;28;20186;-61
2021/12/04 09:12:55;;;;;;;10.63;1.73;;;7.60;99.90;;;;;;5029062;28;20225;-60
2021/12/04 09:15:25;;;;;;;12.00;1.97;;;7.60;99.90;;;;;;5031800;28;20184;-59
2021/12/04 09:17:51;;;;;;;21.30;2.20;;;7.60;99.90;;;;;;5026617;28;20692;-61
2021/12/04 09:20:17;;;;;;;8.20;1.47;;;7.70;99.90;;;;;;5011380;28;20190;-61
2021/12/04 09:22:45;;;;;;;15.57;1.80;;;7.60;99.90;;;;;;5011731;28;20274;-61
2021/12/04 09:25:16;;;;;;;15.53;2.20;;;7.90;99.90;;;;;;5021163;28;20703;-60
2021/12/04 09:28:18;;;;;;;9.00;1.63;;;8.20;99.90;;;;;;5031748;28;20612;-60
2021/12/04 09:36:43;;;;;;;20.77;1.90;;;8.30;99.90;;;;;;5011862;28;20178;-58
2021/12/04 10:03:31;;;;;;;9.13;1.87;;;8.00;99.90;;;;;;5030779;28;20754;-66
2021/12/04 10:22:30;;;;;;;12.97;1.50;;;8.70;99.90;;;;;;5030142;28;20174;-65
2021/12/04 10:33:40;;;;;;;12.70;2.03;;;9.40;99.90;;;;;;5011065;28;20225;-66
2021/12/04 10:36:06;;;;;;;4.03;1.20;;;9.50;99.90;;;;;;5010891;28;20170;-66
2021/12/04 10:38:41;;;;;;;8.70;1.57;;;9.50;99.90;;;;;;5012239;28;20190;-65
2021/12/04 10:41:07;;;;;;;6.93;1.43;;;9.40;99.90;;;;;;5024312;28;20658;-66
2021/12/04 10:43:35;;;;;;;8.90;1.60;;;9.30;99.90;;;;;;5030484;28;20257;-65
2021/12/04 10:46:12;;;;;;;9.70;1.20;;;9.70;99.90;;;;;;5007318;28;20181;-65
2021/12/04 10:48:46;;;;;;;11.37;1.50;;;9.70;99.90;;;;;;5016556;28;20264;-66
2021/12/04 10:53:51;;;;;;;6.40;1.03;;;9.80;99.90;;;;;;5009991;28;20174;-66
2021/12/04 10:56:28;;;;;;;9.87;1.30;;;9.90;99.90;;;;;;5019815;28;20262;-65
2021/12/04 11:04:47;;;;;;;16.20;1.50;;;10.90;99.90;;;;;;5021338;28;20221;-64
2021/12/04 11:45:19;;;;;;;8.18;1.60;;;14.20;99.90;;;;;;5013004;28;20692;-63
2021/12/04 11:47:51;;;;;;;8.40;1.63;;;14.40;99.90;;;;;;5028748;28;20264;-63
2021/12/04 11:50:26;;;;;;;5.90;1.02;;;14.80;99.90;;;;;;4996201;28;20259;-63
2021/12/04 11:52:55;;;;;;;9.90;1.55;;;14.80;99.90;;;;;;5033333;28;20698;-63
2021/12/04 11:55:23;;;;;;;7.43;1.55;;;14.00;99.90;;;;;;5017406;28;20238;-62
2021/12/04 11:57:49;;;;;;;7.05;1.85;;;14.00;99.90;;;;;;5028619;28;20351;-64
2021/12/04 12:00:21;;;;;;;9.20;1.70;;;13.90;99.90;;;;;;5032628;28;20177;-64
2021/12/04 12:02:49;;;;;;;7.75;1.55;;;14.10;99.90;;;;;;5033283;28;20181;-64
2021/12/04 12:05:20;;;;;;;8.65;1.77;;;13.50;99.90;;;;;;5023425;28;20276;-64
2021/12/04 12:07:54;;;;;;;9.23;1.45;;;13.70;99.90;;;;;;5024136;28;20166;-64
2021/12/04 12:10:21;;;;;;;16.60;1.95;;;14.00;99.90;;;;;;5013236;28;20173;-64
2021/12/04 12:12:48;;;;;;;7.63;1.50;;;14.10;99.90;;;;;;5012684;28;20218;-65
2021/12/04 12:15:31;;;;;;;10.95;1.95;;;14.30;99.90;;;;;;5012237;28;20209;-64
2021/12/04 12:18:14;;;;;;;6.25;1.38;;;14.70;99.90;;;;;;5014767;28;20683;-64
2021/12/04 12:21:02;;;;;;;9.88;1.77;;;14.60;99.90;;;;;;5013024;28;20197;-64
2021/12/04 12:23:32;;;;;;;7.18;1.58;;;15.00;99.90;;;;;;5023626;28;20186;-64
2021/12/04 12:26:07;;;;;;;9.13;1.70;;;14.80;99.90;;;;;;5012138;28;20186;-64
2021/12/04 12:37:26;;;;;;;6.18;1.50;;;15.80;99.90;;;;;;4992855;28;20657;-64
2021/12/04 12:39:56;;;;;;;7.78;1.50;;;15.40;99.90;;;;;;4995759;28;20175;-65
2021/12/04 12:42:37;;;;;;;11.40;1.77;;;15.40;99.90;;;;;;5019017;28;20547;-65
2021/12/04 12:45:18;;;;;;;13.05;1.88;;;14.70;99.90;;;;;;5019631;28;20805;-64
2021/12/04 12:47:58;;;;;;;8.32;1.58;;;14.90;99.90;;;;;;5027323;28;20645;-62
2021/12/04 12:50:34;;;;;;;9.43;1.63;;;14.70;99.90;;;;;;4992750;28;20222;-65
2021/12/04 12:53:13;;;;;;;9.82;1.92;;;15.20;99.90;;;;;;5008415;28;20171;-64
2021/12/04 12:55:41;;;;;;;9.27;1.73;;;15.40;99.90;;;;;;5012139;28;20167;-62
2021/12/04 12:58:18;;;;;;;9.23;1.83;;;15.70;99.90;;;;;;5012378;28;20261;-64
2021/12/04 13:12:13;;;;;;;10.20;1.58;;;16.40;99.90;;;;;;5013181;28;20185;-63
2021/12/04 13:14:42;;;;;;;10.85;1.80;;;16.20;99.90;;;;;;5011462;28;20220;-63
2021/12/04 13:17:09;;;;;;;6.57;1.67;;;16.40;99.90;;;;;;5018893;28;20586;-64
2021/12/04 13:19:38;;;;;;;6.50;1.85;;;17.30;99.90;;;;;;5027004;28;20236;-65
2021/12/04 13:22:09;;;;;;;8.35;1.45;;;16.80;99.90;;;;;;5013118;28;20190;-64
2021/12/04 13:24:38;;;;;;;9.45;1.80;;;15.60;99.90;;;;;;4991581;28;20213;-63
2021/12/04 13:29:41;;;;;;;9.27;1.83;;;14.00;99.90;;;;;;4993431;28;20186;-64
2021/12/04 13:32:12;;;;;;;7.53;1.80;;;14.60;99.90;;;;;;5030915;28;20170;-63
2021/12/04 13:34:40;;;;;;;8.88;1.58;;;14.80;99.90;;;;;;5007694;28;20307;-64
2021/12/04 13:37:08;;;;;;;7.15;1.38;;;14.60;99.90;;;;;;5011337;28;20167;-63
2021/12/04 13:39:36;;;;;;;7.65;1.80;;;14.50;99.90;;;;;;5010859;28;20177;-64
2021/12/04 13:42:02;;;;;;;8.45;1.63;;;14.70;99.90;;;;;;5016027;28;20181;-63
2021/12/04 13:44:30;;;;;;;10.02;1.70;;;14.80;99.90;;;;;;5019856;28;20206;-63
2021/12/04 13:47:03;;;;;;;11.25;1.83;;;14.40;99.90;;;;;;5011317;28;20227;-64
2021/12/04 13:49:55;;;;;;;9.23;1.48;;;14.60;99.90;;;;;;5011393;28;20208;-64
2021/12/04 13:52:23;;;;;;;16.38;2.05;;;14.00;99.90;;;;;;5030035;28;20239;-63
2021/12/04 13:54:52;;;;;;;7.47;1.67;;;14.60;99.90;;;;;;5029248;28;20220;-63
2021/12/04 13:57:18;;;;;;;9.45;1.55;;;15.10;99.90;;;;;;5030766;28;20166;-64
2021/12/04 13:59:45;;;;;;;7.60;1.73;;;15.20;99.90;;;;;;5023352;28;20319;-63
2021/12/04 14:02:26;;;;;;;8.05;1.48;;;15.20;99.90;;;;;;5011254;28;20174;-63
2021/12/04 14:05:03;;;;;;;11.68;1.40;;;15.40;99.90;;;;;;5010870;28;20252;-63
2021/12/04 14:07:30;;;;;;;6.03;1.35;;;15.30;99.90;;;;;;5010887;28;20174;-63
2021/12/04 14:09:56;;;;;;;8.25;1.40;;;15.60;99.90;;;;;;5010336;28;20660;-63
2021/12/04 14:12:22;;;;;;;7.43;1.33;;;14.70;99.90;;;;;;5008712;28;20230;-65
2021/12/04 14:14:48;;;;;;;8.70;1.52;;;14.20;99.90;;;;;;5009379;28;20179;-62
2021/12/04 14:17:17;;;;;;;9.52;1.80;;;13.80;99.90;;;;;;5011043;28;20253;-65
2021/12/04 14:19:43;;;;;;;9.07;1.63;;;13.70;99.90;;;;;;5010769;28;20293;-66
2021/12/04 14:22:16;;;;;;;13.80;1.55;;;13.50;99.90;;;;;;5011124;28;20186;-65
2021/12/04 14:24:54;;;;;;;6.05;1.10;;;13.00;99.90;;;;;;5022055;28;20255;-64
2021/12/04 14:27:26;;;;;;;6.55;1.23;;;13.10;99.90;;;;;;5019300;28;20219;-64
2021/12/04 14:29:54;;;;;;;5.60;1.58;;;12.60;99.90;;;;;;5011210;28;20209;-69
2021/12/04 14:32:28;;;;;;;6.90;1.63;;;12.20;99.90;;;;;;5010034;28;20206;-65
2021/12/04 14:35:16;;;;;;;6.88;1.30;;;11.80;99.90;;;;;;5010352;28;20196;-65
2021/12/04 14:37:48;;;;;;;7.67;1.50;;;11.40;99.90;;;;;;5010687;28;20205;-65
2021/12/04 14:40:18;;;;;;;12.10;1.80;;;11.20;99.90;;;;;;5013974;28;20190;-65
2021/12/04 14:42:45;;;;;;;8.00;1.60;;;11.20;99.90;;;;;;5022809;28;20288;-66
2021/12/04 14:45:20;;;;;;;7.33;1.30;;;11.40;99.90;;;;;;5011285;28;20272;-66
2021/12/04 14:48:08;;;;;;;10.97;1.60;;;11.60;99.90;;;;;;4992859;28;20232;-66
2021/12/04 14:50:36;;;;;;;9.97;1.63;;;11.60;99.90;;;;;;5013853;28;20181;-66
2021/12/04 14:53:06;;;;;;;11.33;1.73;;;11.90;99.90;;;;;;5014907;28;20217;-67
2021/12/04 14:55:40;;;;;;;8.73;1.83;;;12.30;99.90;;;;;;5014865;28;20205;-66
2021/12/04 14:58:16;;;;;;;11.30;1.83;;;11.80;99.90;;;;;;5034485;28;20268;-66
2021/12/04 15:00:54;;;;;;;7.80;1.43;;;11.30;99.90;;;;;;5032855;28;20169;-66
2021/12/04 15:03:58;;;;;;;12.00;1.70;;;11.10;99.90;;;;;;5019632;28;20169;-64
2021/12/04 15:06:26;;;;;;;7.33;1.20;;;10.80;99.90;;;;;;4972910;28;20196;-64
2021/12/04 15:09:08;;;;;;;8.03;1.43;;;10.50;99.90;;;;;;5010495;28;20182;-64
2021/12/04 15:11:35;;;;;;;13.60;1.97;;;10.80;99.90;;;;;;5018208;28;20635;-64
2021/12/04 15:14:31;;;;;;;6.33;1.23;;;10.70;99.90;;;;;;5022452;28;20241;-64
2021/12/04 15:17:01;;;;;;;17.43;1.93;;;10.80;99.90;;;;;;4994782;28;20175;-64
2021/12/04 15:19:46;;;;;;;11.90;1.50;;;10.90;99.90;;;;;;5004440;28;20177;-65
2021/12/04 15:22:24;;;;;;;9.43;1.50;;;11.20;99.90;;;;;;5033782;28;20182;-65
2021/12/04 15:24:50;;;;;;;11.07;1.60;;;10.90;99.90;;;;;;5028544;28;20224;-64
2021/12/04 15:27:20;;;;;;;7.27;1.97;;;10.60;99.90;;;;;;5018828;28;20175;-65
2021/12/04 15:29:48;;;;;;;103.60;32.07;;;10.00;99.90;;;;;;5032630;28;20489;-65
2021/12/04 15:32:19;;;;;;;21.77;10.77;;;9.90;99.90;;;;;;5016955;28;20177;-65
2021/12/04 15:34:54;;;;;;;12.87;2.70;;;9.60;99.90;;;;;;5013671;28;20186;-65
2021/12/04 15:38:00;;;;;;;22.13;7.90;;;9.40;99.90;;;;;;5013730;28;20170;-65
2021/12/04 15:54:12;;;;;;;7.30;1.20;;;8.40;99.90;;;;;;5013708;28;20170;-64
2021/12/04 15:56:44;;;;;;;6.47;1.87;;;8.40;99.90;;;;;;5013459;28;20233;-64
2021/12/04 15:59:23;;;;;;;6.30;1.40;;;8.30;99.90;;;;;;5013536;28;20179;-64
2021/12/04 16:01:53;;;;;;;5.93;1.80;;;8.30;99.90;;;;;;5012707;28;20166;-65
2021/12/04 16:04:26;;;;;;;23.33;7.20;;;8.20;99.90;;;;;;5013017;28;20301;-65
2021/12/04 16:06:53;;;;;;;18.73;4.83;;;8.20;99.90;;;;;;5011992;28;20179;-64
2021/12/04 16:09:35;;;;;;;14.13;4.37;;;8.20;99.90;;;;;;4995106;28;20523;-64
2021/12/04 16:12:07;;;;;;;8.33;3.00;;;8.00;99.90;;;;;;5013240;28;20684;-64
2021/12/04 16:14:35;;;;;;;9.47;2.10;;;8.00;99.90;;;;;;5013140;28;20186;-65